Kochki, Russia
Current Conditions -  °F | °C
As of 3:00 PM on Friday 19 Dec 2014 (Local Time) from UNNT Reporting Station
Clear Clear  
Wind Chill: -4°   Ceiling: Unl
Heat Index: 10°   Visibility: 6mi
Dew Point:   Wind: 11mph
Humidity: 79%   Direction: 170°S
Pressure: 30.59"   Gusts: NA
Location:  54.34°N, 80.48°E
Report Text: UNNT 190800Z 17005MPS CAVOK M12/M15 Q1036 16810160 25810160NOSIG RMK QFE767/1023
Loading
Personal Weather Stations






























Interactive Weather Map New forecast layout! Learn more

10-Day Weather Forecast

Advertisements
Track Severe Weather on mobile